Time;durP1;ratioP1;P1;durP2;ratioP2;P2;SDS_P1;SDS_P2;PMS_P1;PMS_P2;Temp;Humidity;BMP_temperature;BMP_pressure;BME280_temperature;BME280_humidity;BME280_pressure;Samples;Min_cycle;Max_cycle;Signal;HPM_P1;HPM_P2
2021/10/17 00:01:46;;;;;;;0.10;0.10;;;;;;;;;;5032642;28;20123;-64
2021/10/17 00:04:11;;;;;;;0.08;0.08;;;;;;;;;;5032804;28;20025;-65
2021/10/17 00:06:36;;;;;;;0.10;0.10;;;;;;;;;;5032861;28;20104;-64
2021/10/17 00:09:01;;;;;;;0.98;0.30;;;;;;;;;;5032763;28;20592;-65
2021/10/17 00:11:27;;;;;;;0.10;0.00;;;;;;;;;;5032832;28;20377;-64
2021/10/17 00:13:52;;;;;;;0.68;0.22;;;;;;;;;;5032864;28;20025;-64
2021/10/17 00:16:17;;;;;;;0.95;0.40;;;;;;;;;;5033007;28;20380;-64
2021/10/17 00:18:43;;;;;;;1.30;0.13;;;;;;;;;;5032933;28;20014;-63
2021/10/17 00:21:08;;;;;;;0.28;0.20;;;;;;;;;;5032911;28;20026;-64
2021/10/17 00:23:33;;;;;;;0.10;0.10;;;;;;;;;;5033001;28;20410;-64
2021/10/17 00:25:58;;;;;;;0.50;0.10;;;;;;;;;;5032892;28;20025;-63
2021/10/17 00:28:24;;;;;;;1.17;0.30;;;;;;;;;;5032518;28;20033;-63
2021/10/17 00:30:49;;;;;;;1.08;0.40;;;;;;;;;;5032465;28;20342;-65
2021/10/17 00:33:14;;;;;;;0.75;0.10;;;;;;;;;;5032595;28;20027;-64
2021/10/17 00:35:40;;;;;;;1.35;0.10;;;;;;;;;;5032786;28;20362;-63
2021/10/17 00:38:05;;;;;;;0.20;0.10;;;;;;;;;;5035029;28;20104;-63
2021/10/17 00:40:31;;;;;;;0.32;0.15;;;;;;;;;;5036362;28;20371;-64
2021/10/17 00:42:56;;;;;;;0.40;0.20;;;;;;;;;;5036388;28;20384;-64
2021/10/17 00:45:27;;;;;;;0.15;0.10;;;;;;;;;;5035205;28;20029;-63
2021/10/17 00:47:52;;;;;;;0.77;0.32;;;;;;;;;;5036072;28;20022;-63
2021/10/17 00:50:17;;;;;;;0.28;0.20;;;;;;;;;;5036090;28;20040;-65
2021/10/17 00:52:44;;;;;;;0.50;0.28;;;;;;;;;;5036029;28;20053;-64
2021/10/17 00:55:11;;;;;;;0.80;0.10;;;;;;;;;;5036145;28;20037;-63
2021/10/17 00:57:38;;;;;;;1.08;0.10;;;;;;;;;;5035879;28;20025;-63
2021/10/17 01:00:05;;;;;;;0.10;0.05;;;;;;;;;;5036187;28;20032;-64
2021/10/17 01:02:30;;;;;;;0.25;0.10;;;;;;;;;;5035628;28;20067;-64
2021/10/17 01:04:56;;;;;;;0.20;0.20;;;;;;;;;;5035865;28;20029;-64
2021/10/17 01:07:21;;;;;;;0.60;0.15;;;;;;;;;;5035879;28;20251;-63
2021/10/17 01:09:46;;;;;;;0.30;0.10;;;;;;;;;;5035744;28;20030;-65
2021/10/17 01:12:12;;;;;;;1.08;0.10;;;;;;;;;;5035504;28;20865;-64
2021/10/17 01:14:37;;;;;;;0.13;0.05;;;;;;;;;;5035570;28;20025;-64
2021/10/17 01:17:03;;;;;;;0.15;0.08;;;;;;;;;;5035950;28;20063;-64
2021/10/17 01:19:28;;;;;;;0.90;0.25;;;;;;;;;;5035540;28;20029;-64
2021/10/17 01:21:54;;;;;;;0.10;0.10;;;;;;;;;;5035487;28;20030;-64
2021/10/17 01:24:19;;;;;;;0.00;0.00;;;;;;;;;;5035548;28;20071;-63
2021/10/17 01:26:46;;;;;;;0.65;0.10;;;;;;;;;;5035532;28;20522;-64
2021/10/17 01:29:11;;;;;;;0.08;0.08;;;;;;;;;;5035353;28;20040;-64
2021/10/17 01:31:50;;;;;;;0.10;0.10;;;;;;;;;;5035135;28;20017;-64
2021/10/17 01:34:15;;;;;;;2.08;0.15;;;;;;;;;;5035481;28;20247;-65
2021/10/17 01:36:40;;;;;;;0.10;0.10;;;;;;;;;;5035296;28;20695;-64
2021/10/17 01:39:07;;;;;;;0.80;0.10;;;;;;;;;;5035462;28;20139;-64
2021/10/17 01:41:33;;;;;;;0.50;0.20;;;;;;;;;;5035273;28;20022;-64
2021/10/17 01:44:05;;;;;;;0.35;0.10;;;;;;;;;;5035262;28;20018;-64
2021/10/17 01:46:30;;;;;;;0.22;0.17;;;;;;;;;;5034898;28;20022;-64
2021/10/17 01:48:56;;;;;;;0.13;0.13;;;;;;;;;;5033917;28;20029;-64
2021/10/17 01:51:21;;;;;;;0.30;0.10;;;;;;;;;;5034987;28;20021;-64
2021/10/17 01:53:46;;;;;;;0.65;0.10;;;;;;;;;;5035188;28;20257;-64
2021/10/17 01:56:11;;;;;;;1.00;0.20;;;;;;;;;;5034883;28;20523;-64
2021/10/17 01:58:37;;;;;;;0.65;0.10;;;;;;;;;;5034873;28;20485;-63
2021/10/17 02:01:02;;;;;;;0.10;0.00;;;;;;;;;;5042713;22;20057;-64
2021/10/17 02:03:28;;;;;;;0.20;0.10;;;;;;;;;;5034753;28;20104;-64
2021/10/17 02:05:53;;;;;;;0.10;0.10;;;;;;;;;;5035033;28;20022;-64
2021/10/17 02:08:18;;;;;;;0.27;0.13;;;;;;;;;;5034617;28;20052;-63
2021/10/17 02:10:44;;;;;;;0.32;0.10;;;;;;;;;;5034609;28;20305;-65
2021/10/17 02:13:10;;;;;;;0.40;0.10;;;;;;;;;;5034854;28;20017;-64
2021/10/17 02:15:35;;;;;;;2.13;0.13;;;;;;;;;;5034435;28;20021;-64
2021/10/17 02:18:00;;;;;;;1.08;0.10;;;;;;;;;;5034814;28;20471;-64
2021/10/17 02:20:26;;;;;;;0.85;0.20;;;;;;;;;;5034564;28;20054;-64
2021/10/17 02:22:52;;;;;;;0.45;0.20;;;;;;;;;;5034451;28;20026;-64
2021/10/17 02:25:17;;;;;;;0.20;0.10;;;;;;;;;;5034576;28;20022;-64
2021/10/17 02:27:42;;;;;;;0.32;0.20;;;;;;;;;;5034294;28;20063;-64
2021/10/17 02:30:08;;;;;;;0.23;0.10;;;;;;;;;;5033948;28;20376;-64
2021/10/17 02:32:34;;;;;;;0.68;0.40;;;;;;;;;;5034296;28;20247;-64
2021/10/17 02:34:59;;;;;;;0.10;0.10;;;;;;;;;;5034491;28;20021;-64
2021/10/17 02:37:24;;;;;;;0.40;0.10;;;;;;;;;;5034103;28;20017;-63
2021/10/17 02:39:50;;;;;;;0.85;0.30;;;;;;;;;;5034522;28;20108;-65
2021/10/17 02:42:15;;;;;;;0.88;0.20;;;;;;;;;;5034194;28;20029;-64
2021/10/17 02:44:40;;;;;;;0.20;0.10;;;;;;;;;;5033978;28;20083;-64
2021/10/17 02:47:06;;;;;;;0.45;0.20;;;;;;;;;;5034128;28;20205;-63
2021/10/17 02:49:31;;;;;;;0.82;0.10;;;;;;;;;;5033768;28;20385;-65
2021/10/17 02:51:57;;;;;;;0.10;0.10;;;;;;;;;;5032701;28;20453;-63
2021/10/17 02:54:24;;;;;;;0.52;0.17;;;;;;;;;;5033889;28;20017;-64
2021/10/17 02:56:49;;;;;;;0.13;0.05;;;;;;;;;;5033849;28;20021;-63
2021/10/17 02:59:14;;;;;;;0.40;0.20;;;;;;;;;;5033896;28;20416;-63
2021/10/17 03:01:40;;;;;;;0.85;0.43;;;;;;;;;;5033273;28;20378;-65
2021/10/17 03:04:05;;;;;;;0.10;0.10;;;;;;;;;;5033550;28;20025;-64
2021/10/17 03:06:30;;;;;;;0.53;0.10;;;;;;;;;;5033701;28;20021;-64
2021/10/17 03:08:55;;;;;;;0.20;0.10;;;;;;;;;;5033700;28;20265;-64
2021/10/17 03:11:21;;;;;;;0.35;0.10;;;;;;;;;;5033455;28;20021;-64
2021/10/17 03:13:47;;;;;;;0.55;0.28;;;;;;;;;;5033321;28;20021;-63
2021/10/17 03:16:12;;;;;;;0.20;0.20;;;;;;;;;;5033666;28;20045;-63
2021/10/17 03:18:38;;;;;;;1.13;0.20;;;;;;;;;;5033520;28;20045;-63
2021/10/17 03:21:03;;;;;;;1.45;0.10;;;;;;;;;;5033491;28;20100;-63
2021/10/17 03:23:29;;;;;;;1.38;0.10;;;;;;;;;;5033267;28;20072;-63
2021/10/17 03:25:54;;;;;;;0.63;0.10;;;;;;;;;;5032348;28;20453;-63
2021/10/17 03:28:19;;;;;;;1.15;0.20;;;;;;;;;;5033375;28;20421;-63
2021/10/17 03:30:44;;;;;;;0.65;0.05;;;;;;;;;;5033317;28;20025;-63
2021/10/17 03:33:10;;;;;;;0.10;0.10;;;;;;;;;;5033080;28;20022;-63
2021/10/17 03:35:35;;;;;;;0.10;0.10;;;;;;;;;;5033461;28;20017;-63
2021/10/17 03:38:00;;;;;;;1.40;0.20;;;;;;;;;;5033288;28;20018;-63
2021/10/17 03:40:25;;;;;;;1.10;0.20;;;;;;;;;;5033157;28;20438;-63
2021/10/17 03:42:51;;;;;;;0.08;0.08;;;;;;;;;;5031788;28;20263;-63
2021/10/17 03:45:16;;;;;;;0.80;0.30;;;;;;;;;;5033294;28;20464;-63
2021/10/17 03:47:42;;;;;;;0.80;0.10;;;;;;;;;;5033181;28;20289;-63
2021/10/17 03:50:07;;;;;;;0.57;0.30;;;;;;;;;;5033000;28;20033;-63
2021/10/17 03:52:33;;;;;;;1.08;0.10;;;;;;;;;;5033033;28;20021;-64
2021/10/17 03:54:58;;;;;;;1.30;0.20;;;;;;;;;;5033252;28;20024;-64
2021/10/17 03:57:25;;;;;;;0.30;0.08;;;;;;;;;;5032919;28;20021;-63
2021/10/17 03:59:50;;;;;;;1.08;0.30;;;;;;;;;;5032845;28;20044;-64
2021/10/17 04:02:15;;;;;;;0.50;0.15;;;;;;;;;;5033044;28;20460;-64
2021/10/17 04:04:40;;;;;;;0.80;0.10;;;;;;;;;;5032665;28;20032;-64
2021/10/17 04:07:06;;;;;;;0.90;0.20;;;;;;;;;;5031896;28;20211;-64
2021/10/17 04:09:32;;;;;;;0.28;0.10;;;;;;;;;;5032896;28;20028;-63
2021/10/17 04:11:57;;;;;;;0.73;0.20;;;;;;;;;;5033825;28;20014;-65
2021/10/17 04:14:22;;;;;;;0.30;0.15;;;;;;;;;;5036730;28;20079;-63
2021/10/17 04:16:47;;;;;;;0.10;0.10;;;;;;;;;;5036967;28;20036;-63
2021/10/17 04:19:13;;;;;;;0.35;0.10;;;;;;;;;;5036640;28;20026;-63
2021/10/17 04:21:38;;;;;;;0.60;0.17;;;;;;;;;;5036452;28;20022;-63
2021/10/17 04:24:03;;;;;;;0.30;0.10;;;;;;;;;;5036619;28;20035;-63
2021/10/17 04:26:28;;;;;;;0.63;0.22;;;;;;;;;;5036686;28;20266;-64
2021/10/17 04:28:54;;;;;;;0.25;0.10;;;;;;;;;;5036782;28;20022;-64
2021/10/17 04:31:19;;;;;;;0.50;0.20;;;;;;;;;;5036501;28;20033;-64
2021/10/17 04:33:44;;;;;;;0.93;0.20;;;;;;;;;;5036606;28;20026;-65
2021/10/17 04:36:09;;;;;;;0.52;0.20;;;;;;;;;;5036589;28;20144;-64
2021/10/17 04:38:35;;;;;;;0.65;0.20;;;;;;;;;;5036337;28;20132;-64
2021/10/17 04:41:00;;;;;;;0.68;0.30;;;;;;;;;;5036310;28;20025;-65
2021/10/17 04:43:26;;;;;;;0.10;0.10;;;;;;;;;;5036406;28;20091;-65
2021/10/17 04:45:52;;;;;;;0.52;0.20;;;;;;;;;;5036459;28;20026;-65
2021/10/17 04:48:17;;;;;;;0.95;0.20;;;;;;;;;;5035915;28;20036;-64
2021/10/17 04:50:42;;;;;;;0.15;0.15;;;;;;;;;;5036227;28;20500;-66
2021/10/17 04:53:09;;;;;;;0.22;0.00;;;;;;;;;;5036213;28;20025;-63
2021/10/17 04:55:34;;;;;;;0.55;0.20;;;;;;;;;;5036155;28;20071;-63
2021/10/17 04:58:02;;;;;;;0.30;0.10;;;;;;;;;;5036119;28;20460;-63
2021/10/17 05:00:27;;;;;;;0.30;0.15;;;;;;;;;;5035776;28;20045;-63
2021/10/17 05:02:53;;;;;;;0.10;0.10;;;;;;;;;;5036115;28;20025;-64
2021/10/17 05:05:18;;;;;;;0.28;0.13;;;;;;;;;;5036074;28;20618;-64
2021/10/17 05:07:43;;;;;;;0.05;0.03;;;;;;;;;;5035865;28;20352;-63
2021/10/17 05:10:09;;;;;;;0.20;0.00;;;;;;;;;;5035679;28;20037;-64
2021/10/17 05:12:34;;;;;;;0.20;0.20;;;;;;;;;;5035843;28;20096;-64
2021/10/17 05:14:59;;;;;;;0.73;0.20;;;;;;;;;;5035960;28;20263;-64
2021/10/17 05:17:24;;;;;;;1.10;0.10;;;;;;;;;;5035707;28;20017;-65
2021/10/17 05:19:49;;;;;;;0.20;0.20;;;;;;;;;;5035822;28;20025;-64
2021/10/17 05:22:15;;;;;;;0.28;0.10;;;;;;;;;;5035584;28;20521;-64
2021/10/17 05:24:40;;;;;;;0.85;0.13;;;;;;;;;;5035550;28;20048;-65
2021/10/17 05:27:05;;;;;;;1.00;0.15;;;;;;;;;;5035746;28;20101;-64
2021/10/17 05:29:30;;;;;;;0.10;0.00;;;;;;;;;;5033953;28;20116;-65
2021/10/17 05:31:56;;;;;;;0.60;0.20;;;;;;;;;;5035541;28;20053;-64
2021/10/17 05:34:21;;;;;;;0.10;0.10;;;;;;;;;;5035377;28;20096;-65
2021/10/17 05:36:46;;;;;;;0.20;0.20;;;;;;;;;;5035488;28;20112;-64
2021/10/17 05:39:11;;;;;;;0.73;0.30;;;;;;;;;;5035408;28;20511;-64
2021/10/17 05:41:37;;;;;;;1.25;0.40;;;;;;;;;;5035179;28;20021;-63
2021/10/17 05:44:02;;;;;;;0.30;0.30;;;;;;;;;;5035392;28;20026;-63
2021/10/17 05:46:28;;;;;;;0.10;0.10;;;;;;;;;;5035068;28;20372;-64
2021/10/17 05:48:53;;;;;;;0.40;0.20;;;;;;;;;;5035325;28;20013;-63
2021/10/17 05:51:18;;;;;;;0.85;0.43;;;;;;;;;;5035099;28;20052;-63
2021/10/17 05:53:43;;;;;;;0.50;0.20;;;;;;;;;;5035187;28;20028;-63
2021/10/17 05:56:09;;;;;;;0.35;0.10;;;;;;;;;;5035146;28;20104;-64
2021/10/17 05:58:34;;;;;;;0.38;0.05;;;;;;;;;;5034932;28;20096;-64
2021/10/17 06:00:59;;;;;;;1.38;0.30;;;;;;;;;;5034597;28;20049;-64
2021/10/17 06:03:24;;;;;;;1.45;0.20;;;;;;;;;;5034833;28;20030;-64
2021/10/17 06:05:49;;;;;;;0.33;0.17;;;;;;;;;;5034794;28;20033;-64
2021/10/17 06:08:15;;;;;;;0.28;0.13;;;;;;;;;;5034789;28;20247;-65
2021/10/17 06:10:41;;;;;;;0.88;0.28;;;;;;;;;;5034671;28;20464;-64
2021/10/17 06:13:06;;;;;;;0.40;0.08;;;;;;;;;;5034791;28;20025;-66
2021/10/17 06:15:31;;;;;;;0.55;0.10;;;;;;;;;;5034647;28;20040;-63
2021/10/17 06:17:57;;;;;;;0.57;0.10;;;;;;;;;;5034720;28;20354;-64
2021/10/17 06:20:22;;;;;;;0.85;0.20;;;;;;;;;;5034558;28;20293;-63
2021/10/17 06:22:47;;;;;;;0.35;0.20;;;;;;;;;;5034427;28;20072;-64
2021/10/17 06:25:12;;;;;;;0.90;0.10;;;;;;;;;;5034689;28;20032;-64
2021/10/17 06:27:38;;;;;;;0.28;0.10;;;;;;;;;;5034438;28;20026;-64
2021/10/17 06:30:03;;;;;;;0.77;0.10;;;;;;;;;;5033855;28;20021;-64
2021/10/17 06:32:28;;;;;;;0.00;0.00;;;;;;;;;;5034353;28;20239;-64
2021/10/17 06:34:54;;;;;;;0.22;0.00;;;;;;;;;;5032676;28;20021;-65
2021/10/17 06:37:19;;;;;;;0.20;0.10;;;;;;;;;;5034257;28;20044;-64
2021/10/17 06:39:44;;;;;;;1.58;0.25;;;;;;;;;;5034295;28;20036;-64
2021/10/17 06:42:12;;;;;;;0.20;0.10;;;;;;;;;;5033931;28;20033;-64
2021/10/17 06:44:37;;;;;;;0.30;0.10;;;;;;;;;;5034134;28;20037;-64
2021/10/17 06:47:02;;;;;;;0.30;0.10;;;;;;;;;;5034225;28;20017;-65
2021/10/17 06:49:28;;;;;;;0.35;0.10;;;;;;;;;;5033822;28;20022;-64
2021/10/17 06:51:53;;;;;;;0.57;0.22;;;;;;;;;;5034154;28;20017;-63
2021/10/17 06:54:18;;;;;;;1.35;0.28;;;;;;;;;;5034041;28;20017;-64
2021/10/17 06:56:46;;;;;;;0.47;0.10;;;;;;;;;;5033628;28;20013;-64
2021/10/17 06:59:12;;;;;;;0.55;0.13;;;;;;;;;;5033996;28;20740;-63
2021/10/17 07:01:37;;;;;;;0.65;0.50;;;;;;;;;;5033506;28;20123;-63
2021/10/17 07:04:02;;;;;;;0.63;0.15;;;;;;;;;;5033872;28;20060;-63
2021/10/17 07:06:27;;;;;;;0.85;0.10;;;;;;;;;;5033368;28;20365;-64
2021/10/17 07:08:53;;;;;;;0.55;0.10;;;;;;;;;;5033923;28;20109;-63
2021/10/17 07:11:18;;;;;;;0.32;0.15;;;;;;;;;;5033501;28;20480;-64
2021/10/17 07:13:43;;;;;;;0.00;0.00;;;;;;;;;;5033682;28;20029;-64
2021/10/17 07:16:08;;;;;;;0.30;0.30;;;;;;;;;;5033753;28;20021;-64
2021/10/17 07:18:33;;;;;;;0.30;0.10;;;;;;;;;;5033383;28;20025;-63
2021/10/17 07:20:59;;;;;;;0.20;0.20;;;;;;;;;;5033573;28;20025;-64
2021/10/17 07:23:24;;;;;;;1.85;0.20;;;;;;;;;;5033222;28;20412;-64
2021/10/17 07:25:49;;;;;;;0.15;0.13;;;;;;;;;;5033510;28;20064;-64
2021/10/17 07:28:15;;;;;;;0.70;0.20;;;;;;;;;;5033356;28;20468;-63
2021/10/17 07:30:40;;;;;;;0.10;0.10;;;;;;;;;;5033295;28;20274;-64
2021/10/17 07:33:06;;;;;;;0.30;0.10;;;;;;;;;;5033557;28;20022;-64
2021/10/17 07:35:31;;;;;;;0.13;0.05;;;;;;;;;;5033337;28;20033;-64
2021/10/17 07:37:57;;;;;;;1.48;0.40;;;;;;;;;;5033320;28;20427;-63
2021/10/17 07:40:23;;;;;;;0.35;0.00;;;;;;;;;;5033133;28;20465;-64
2021/10/17 07:42:48;;;;;;;0.28;0.10;;;;;;;;;;5033309;28;20032;-64
2021/10/17 07:45:14;;;;;;;0.28;0.15;;;;;;;;;;5033215;28;20101;-64
2021/10/17 07:47:39;;;;;;;0.90;0.40;;;;;;;;;;5032336;28;20049;-65
2021/10/17 07:50:05;;;;;;;0.20;0.10;;;;;;;;;;5033052;28;20060;-64
2021/10/17 07:52:30;;;;;;;1.08;0.10;;;;;;;;;;5033015;28;20247;-64
2021/10/17 07:54:55;;;;;;;0.70;0.27;;;;;;;;;;5031992;28;20013;-63
2021/10/17 07:57:21;;;;;;;0.10;0.10;;;;;;;;;;5033046;28;20251;-64
2021/10/17 07:59:46;;;;;;;0.73;0.20;;;;;;;;;;5032999;28;20067;-64
2021/10/17 08:02:11;;;;;;;0.30;0.10;;;;;;;;;;5033177;28;20041;-63
2021/10/17 08:04:38;;;;;;;0.93;0.20;;;;;;;;;;5033024;28;20022;-63
2021/10/17 08:07:04;;;;;;;0.10;0.10;;;;;;;;;;5033156;28;20812;-64
2021/10/17 08:09:29;;;;;;;0.30;0.10;;;;;;;;;;5032802;28;20034;-64
2021/10/17 08:11:54;;;;;;;0.00;0.00;;;;;;;;;;5033068;28;20022;-63
2021/10/17 08:14:21;;;;;;;0.38;0.10;;;;;;;;;;5032648;28;20064;-64
2021/10/17 08:16:46;;;;;;;0.80;0.30;;;;;;;;;;5032954;28;20495;-64
2021/10/17 08:19:11;;;;;;;0.47;0.25;;;;;;;;;;5032963;28;20065;-63
2021/10/17 08:21:36;;;;;;;0.27;0.20;;;;;;;;;;5032746;28;20030;-63
2021/10/17 08:24:02;;;;;;;0.80;0.10;;;;;;;;;;5033040;28;20266;-64
2021/10/17 08:26:27;;;;;;;0.75;0.45;;;;;;;;;;5032849;28;20416;-64
2021/10/17 08:28:53;;;;;;;0.30;0.30;;;;;;;;;;5032652;28;20060;-64
2021/10/17 08:31:18;;;;;;;1.13;0.38;;;;;;;;;;5032924;28;20041;-64
2021/10/17 08:33:43;;;;;;;0.43;0.10;;;;;;;;;;5033146;28;20018;-65
2021/10/17 08:36:09;;;;;;;0.20;0.20;;;;;;;;;;5032795;28;20026;-65
2021/10/17 08:38:34;;;;;;;0.45;0.10;;;;;;;;;;5032384;28;20026;-64
2021/10/17 08:41:00;;;;;;;0.95;0.00;;;;;;;;;;5033003;28;20027;-65
2021/10/17 08:43:25;;;;;;;0.55;0.32;;;;;;;;;;5032592;28;20060;-65
2021/10/17 08:45:50;;;;;;;0.17;0.17;;;;;;;;;;5031584;28;20021;-64
2021/10/17 08:48:16;;;;;;;0.20;0.10;;;;;;;;;;5032748;28;20096;-64
2021/10/17 08:50:41;;;;;;;0.40;0.15;;;;;;;;;;5032651;28;20384;-64
2021/10/17 08:53:07;;;;;;;0.25;0.10;;;;;;;;;;5032775;28;20067;-64
2021/10/17 08:55:32;;;;;;;0.20;0.10;;;;;;;;;;5032567;28;20507;-64
2021/10/17 08:57:57;;;;;;;0.20;0.20;;;;;;;;;;5033351;28;20018;-65
2021/10/17 09:00:28;;;;;;;1.33;0.10;;;;;;;;;;5035634;28;20557;-65
2021/10/17 09:02:54;;;;;;;0.35;0.10;;;;;;;;;;5036260;28;20477;-65
2021/10/17 09:05:30;;;;;;;0.17;0.10;;;;;;;;;;5036059;28;20099;-64
2021/10/17 09:07:56;;;;;;;0.50;0.20;;;;;;;;;;5035902;28;20484;-64
2021/10/17 09:10:21;;;;;;;0.10;0.10;;;;;;;;;;5035743;28;20136;-64
2021/10/17 09:12:47;;;;;;;0.47;0.32;;;;;;;;;;5035776;28;20071;-64
2021/10/17 09:15:18;;;;;;;0.30;0.28;;;;;;;;;;5035937;28;20052;-65
2021/10/17 09:18:02;;;;;;;0.32;0.17;;;;;;;;;;5035774;28;20028;-64
2021/10/17 09:20:27;;;;;;;0.20;0.03;;;;;;;;;;5035652;28;20033;-63
2021/10/17 09:22:53;;;;;;;0.22;0.10;;;;;;;;;;5035570;28;20048;-64
2021/10/17 09:25:34;;;;;;;0.50;0.20;;;;;;;;;;5035365;28;20071;-64
2021/10/17 09:27:59;;;;;;;0.10;0.10;;;;;;;;;;5035755;28;20021;-64
2021/10/17 09:30:25;;;;;;;0.65;0.15;;;;;;;;;;5035256;28;20021;-64
2021/10/17 09:32:50;;;;;;;0.10;0.05;;;;;;;;;;5035702;28;20078;-64
2021/10/17 09:35:16;;;;;;;0.10;0.00;;;;;;;;;;5035622;28;20044;-64
2021/10/17 09:37:41;;;;;;;0.65;0.20;;;;;;;;;;5035283;28;20589;-64
2021/10/17 09:40:21;;;;;;;1.13;0.10;;;;;;;;;;5035468;28;20427;-64
2021/10/17 09:43:01;;;;;;;1.27;0.28;;;;;;;;;;5035318;28;20017;-64
2021/10/17 09:45:26;;;;;;;0.55;0.20;;;;;;;;;;5035195;28;20091;-64
2021/10/17 09:47:51;;;;;;;0.50;0.10;;;;;;;;;;5035423;28;20057;-63
2021/10/17 09:50:18;;;;;;;0.77;0.10;;;;;;;;;;5034929;28;20025;-64
2021/10/17 09:53:00;;;;;;;0.55;0.17;;;;;;;;;;5035089;28;20250;-63
2021/10/17 09:55:26;;;;;;;0.25;0.10;;;;;;;;;;5034954;28;20037;-66
2021/10/17 09:57:51;;;;;;;0.20;0.10;;;;;;;;;;5033968;28;20017;-64
2021/10/17 10:00:17;;;;;;;0.40;0.10;;;;;;;;;;5034902;28;20431;-64
2021/10/17 10:02:45;;;;;;;0.47;0.10;;;;;;;;;;5034917;28;20515;-65
2021/10/17 10:05:11;;;;;;;0.85;0.08;;;;;;;;;;5035088;28;20021;-64
2021/10/17 10:07:37;;;;;;;0.45;0.05;;;;;;;;;;5034840;28;20025;-65
2021/10/17 10:10:03;;;;;;;0.85;0.25;;;;;;;;;;5033978;28;20035;-64
2021/10/17 10:12:29;;;;;;;0.40;0.20;;;;;;;;;;5034724;28;20021;-64
2021/10/17 10:14:55;;;;;;;0.77;0.20;;;;;;;;;;5035013;28;20029;-64
2021/10/17 10:17:21;;;;;;;0.30;0.10;;;;;;;;;;5034603;28;20375;-64
2021/10/17 10:19:47;;;;;;;0.45;0.20;;;;;;;;;;5034593;28;20026;-63
2021/10/17 10:22:12;;;;;;;0.70;0.10;;;;;;;;;;5034806;28;20032;-63
2021/10/17 10:24:37;;;;;;;1.00;0.10;;;;;;;;;;5034566;28;20410;-64
2021/10/17 10:27:03;;;;;;;0.90;0.30;;;;;;;;;;5034618;28;20057;-64
2021/10/17 10:29:30;;;;;;;0.47;0.13;;;;;;;;;;5034271;28;20025;-64
2021/10/17 10:31:58;;;;;;;0.63;0.30;;;;;;;;;;5034691;28;20017;-63
2021/10/17 10:34:23;;;;;;;0.32;0.10;;;;;;;;;;5034339;28;20017;-63
2021/10/17 10:36:49;;;;;;;0.30;0.10;;;;;;;;;;5034489;28;20529;-64
2021/10/17 10:39:16;;;;;;;0.60;0.10;;;;;;;;;;5034384;28;20315;-64
2021/10/17 10:41:44;;;;;;;0.63;0.20;;;;;;;;;;5034348;28;20032;-66
2021/10/17 10:44:17;;;;;;;0.20;0.00;;;;;;;;;;5033084;28;20025;-64
2021/10/17 10:46:42;;;;;;;0.10;0.08;;;;;;;;;;5034079;28;20025;-64
2021/10/17 10:49:09;;;;;;;0.25;0.10;;;;;;;;;;5034466;28;20379;-63
2021/10/17 10:51:40;;;;;;;0.08;0.00;;;;;;;;;;5033718;28;20018;-64
2021/10/17 10:54:06;;;;;;;0.70;0.10;;;;;;;;;;5034265;28;20373;-65
2021/10/17 10:56:37;;;;;;;0.60;0.52;;;;;;;;;;5033958;28;20021;-64
2021/10/17 10:59:03;;;;;;;0.47;0.10;;;;;;;;;;5034220;28;20024;-65
2021/10/17 11:01:47;;;;;;;0.90;0.17;;;;;;;;;;5032518;28;20045;-64
2021/10/17 11:04:32;;;;;;;1.65;0.20;;;;;;;;;;5034000;28;20067;-64
2021/10/17 11:07:16;;;;;;;0.35;0.10;;;;;;;;;;5033898;28;20066;-64
2021/10/17 11:09:41;;;;;;;0.20;0.20;;;;;;;;;;5033533;28;20025;-64
2021/10/17 11:12:07;;;;;;;0.32;0.17;;;;;;;;;;5033906;28;20171;-64
2021/10/17 11:14:32;;;;;;;0.80;0.10;;;;;;;;;;5033730;28;20097;-64
2021/10/17 11:17:06;;;;;;;0.28;0.17;;;;;;;;;;5033764;28;20036;-65
2021/10/17 11:19:34;;;;;;;0.40;0.10;;;;;;;;;;5033521;28;20486;-64
2021/10/17 11:22:00;;;;;;;1.13;0.10;;;;;;;;;;5033427;28;20030;-64
2021/10/17 11:24:26;;;;;;;0.40;0.10;;;;;;;;;;5033533;28;20040;-65
2021/10/17 11:27:26;;;;;;;0.65;0.20;;;;;;;;;;5033552;28;20032;-65
2021/10/17 11:29:51;;;;;;;0.13;0.13;;;;;;;;;;4953125;29;20037;-64
2021/10/17 11:32:17;;;;;;;2.60;0.52;;;;;;;;;;4953215;29;20126;-64
2021/10/17 11:35:02;;;;;;;1.27;0.13;;;;;;;;;;4953136;29;20027;-64
2021/10/17 11:37:29;;;;;;;0.45;0.20;;;;;;;;;;4952422;29;20055;-64
2021/10/17 11:40:04;;;;;;;0.45;0.17;;;;;;;;;;4953306;29;20025;-63
2021/10/17 11:42:41;;;;;;;0.10;0.10;;;;;;;;;;4952969;29;20075;-63
2021/10/17 11:45:06;;;;;;;1.40;0.40;;;;;;;;;;4952896;29;20035;-63
2021/10/17 11:47:31;;;;;;;0.30;0.13;;;;;;;;;;4952633;29;20053;-64
2021/10/17 11:49:59;;;;;;;0.43;0.30;;;;;;;;;;4952975;29;20111;-63
2021/10/17 11:52:25;;;;;;;0.22;0.10;;;;;;;;;;4953084;29;20483;-64
2021/10/17 11:54:50;;;;;;;1.33;0.40;;;;;;;;;;4953088;29;20055;-64
2021/10/17 11:57:31;;;;;;;0.95;0.40;;;;;;;;;;4952716;29;20043;-63
2021/10/17 11:59:57;;;;;;;0.30;0.20;;;;;;;;;;4952848;29;20043;-64
2021/10/17 12:02:36;;;;;;;0.43;0.10;;;;;;;;;;4952807;29;20031;-63
2021/10/17 12:05:02;;;;;;;0.85;0.20;;;;;;;;;;5032455;28;20033;-63
2021/10/17 12:07:28;;;;;;;0.38;0.20;;;;;;;;;;5033051;28;20357;-64
2021/10/17 12:09:54;;;;;;;1.23;0.20;;;;;;;;;;5032032;28;20032;-64
2021/10/17 12:12:22;;;;;;;0.45;0.20;;;;;;;;;;5033039;28;20464;-63
2021/10/17 12:15:03;;;;;;;0.40;0.40;;;;;;;;;;5032898;28;20064;-63
2021/10/17 12:17:29;;;;;;;0.10;0.05;;;;;;;;;;5032729;28;20040;-63
2021/10/17 12:19:58;;;;;;;0.35;0.15;;;;;;;;;;5033104;28;20021;-63
2021/10/17 12:22:23;;;;;;;0.50;0.10;;;;;;;;;;5032759;28;20021;-63
2021/10/17 12:24:48;;;;;;;0.20;0.20;;;;;;;;;;5032890;28;20071;-63
2021/10/17 12:27:28;;;;;;;0.30;0.17;;;;;;;;;;5032755;28;20429;-63
2021/10/17 12:30:01;;;;;;;1.77;0.20;;;;;;;;;;5031609;28;20025;-64
2021/10/17 12:32:39;;;;;;;2.95;0.20;;;;;;;;;;5032714;28;20067;-63
2021/10/17 12:35:13;;;;;;;0.15;0.10;;;;;;;;;;5036654;28;20326;-63
2021/10/17 12:37:39;;;;;;;1.05;0.10;;;;;;;;;;5036468;28;20636;-64
2021/10/17 12:40:04;;;;;;;0.90;0.10;;;;;;;;;;5036752;28;20029;-63
2021/10/17 12:42:29;;;;;;;1.17;0.20;;;;;;;;;;5036296;28;20163;-64
2021/10/17 12:44:58;;;;;;;1.08;0.20;;;;;;;;;;5036408;28;20026;-63
2021/10/17 12:47:23;;;;;;;0.43;0.20;;;;;;;;;;5036398;28;20076;-63
2021/10/17 12:49:48;;;;;;;0.30;0.10;;;;;;;;;;5036311;28;20460;-63
2021/10/17 12:52:27;;;;;;;0.33;0.20;;;;;;;;;;5036366;28;20107;-63
2021/10/17 12:54:57;;;;;;;0.43;0.10;;;;;;;;;;5036204;28;20251;-63
2021/10/17 12:57:22;;;;;;;0.20;0.10;;;;;;;;;;5036186;28;20021;-63
2021/10/17 12:59:52;;;;;;;0.43;0.10;;;;;;;;;;5036292;28;20032;-63
2021/10/17 13:02:17;;;;;;;0.20;0.17;;;;;;;;;;5036064;28;20310;-63
2021/10/17 13:04:43;;;;;;;0.25;0.20;;;;;;;;;;5035916;28;20087;-64
2021/10/17 13:07:09;;;;;;;0.77;0.20;;;;;;;;;;5034855;28;20117;-64
2021/10/17 13:09:42;;;;;;;0.17;0.15;;;;;;;;;;5035963;28;20363;-64
2021/10/17 13:12:15;;;;;;;0.32;0.30;;;;;;;;;;5035782;28;20028;-63
2021/10/17 13:14:54;;;;;;;0.63;0.20;;;;;;;;;;5035783;28;20021;-64
2021/10/17 13:17:19;;;;;;;0.75;0.20;;;;;;;;;;5036063;28;20342;-63
2021/10/17 13:19:44;;;;;;;0.60;0.20;;;;;;;;;;5035787;28;20037;-63
2021/10/17 13:22:10;;;;;;;0.20;0.20;;;;;;;;;;5035796;28;20028;-64
2021/10/17 13:24:36;;;;;;;0.68;0.10;;;;;;;;;;5035534;28;20535;-64
2021/10/17 13:27:01;;;;;;;0.75;0.40;;;;;;;;;;5035751;28;20029;-64
2021/10/17 13:29:26;;;;;;;1.73;0.40;;;;;;;;;;5035364;28;20017;-63
2021/10/17 13:31:51;;;;;;;1.45;0.20;;;;;;;;;;5035458;28;20283;-64
2021/10/17 13:34:16;;;;;;;0.50;0.10;;;;;;;;;;5035092;28;20021;-64
2021/10/17 13:36:42;;;;;;;0.55;0.20;;;;;;;;;;5035523;28;20034;-64
2021/10/17 13:39:07;;;;;;;0.30;0.10;;;;;;;;;;5035529;28;20021;-65
2021/10/17 13:41:32;;;;;;;0.70;0.10;;;;;;;;;;5035310;28;20033;-64
2021/10/17 13:43:58;;;;;;;0.20;0.10;;;;;;;;;;5035460;28;20108;-64
2021/10/17 13:46:23;;;;;;;1.02;0.63;;;;;;;;;;5035152;28;20017;-65
2021/10/17 13:48:48;;;;;;;0.67;0.20;;;;;;;;;;5035383;28;20538;-64
2021/10/17 13:51:15;;;;;;;1.92;0.28;;;;;;;;;;5034922;28;20274;-64
2021/10/17 13:53:40;;;;;;;0.40;0.20;;;;;;;;;;5035157;28;20030;-64
2021/10/17 13:56:05;;;;;;;0.65;0.10;;;;;;;;;;5035283;28;20392;-64
2021/10/17 13:58:31;;;;;;;0.57;0.22;;;;;;;;;;5034804;28;20045;-63
2021/10/17 14:00:56;;;;;;;1.60;0.10;;;;;;;;;;5034768;28;20084;-64
2021/10/17 14:03:21;;;;;;;0.50;0.20;;;;;;;;;;5034768;28;20030;-63
2021/10/17 14:05:46;;;;;;;1.23;0.20;;;;;;;;;;5034846;28;20025;-63
2021/10/17 14:08:11;;;;;;;0.73;0.13;;;;;;;;;;5034929;28;20044;-64
2021/10/17 14:10:37;;;;;;;0.90;0.20;;;;;;;;;;5034492;28;20286;-64
2021/10/17 14:13:02;;;;;;;0.55;0.20;;;;;;;;;;5034935;28;20018;-64
2021/10/17 14:15:27;;;;;;;1.13;0.28;;;;;;;;;;5033743;28;20104;-64
2021/10/17 14:17:53;;;;;;;0.28;0.17;;;;;;;;;;5034785;28;20140;-65
2021/10/17 14:20:19;;;;;;;0.45;0.30;;;;;;;;;;5034507;28;20353;-64
2021/10/17 14:22:45;;;;;;;0.60;0.10;;;;;;;;;;5033449;28;20460;-65
2021/10/17 14:25:10;;;;;;;0.60;0.32;;;;;;;;;;5033927;28;20337;-64
2021/10/17 14:27:35;;;;;;;0.20;0.00;;;;;;;;;;5034449;28;20139;-64
2021/10/17 14:30:00;;;;;;;0.63;0.40;;;;;;;;;;5033255;28;20472;-64
2021/10/17 14:32:26;;;;;;;0.32;0.10;;;;;;;;;;5034411;28;20095;-64
2021/10/17 14:34:51;;;;;;;0.40;0.10;;;;;;;;;;5034539;28;20028;-63
2021/10/17 14:37:17;;;;;;;0.93;0.40;;;;;;;;;;5034031;28;20368;-64
2021/10/17 14:39:46;;;;;;;1.27;0.20;;;;;;;;;;5034251;28;20100;-65